sensor_id;sensor_type;location;lat;lon;timestamp;P1;durP1;ratioP1;P2;durP2;ratioP2
68375;SDS011;55318;52.068;5.188;2023-03-14T00:01:27;9.71;;;4.41;;
68375;SDS011;55318;52.068;5.188;2023-03-14T00:03:03;13.2;;;4.3;;
68375;SDS011;55318;52.068;5.188;2023-03-14T00:06:16;8.31;;;2.5;;
68375;SDS011;55318;52.068;5.188;2023-03-14T00:07:52;10.3;;;3.0;;
68375;SDS011;55318;52.068;5.188;2023-03-14T00:09:29;6.6;;;3.3;;
68375;SDS011;55318;52.068;5.188;2023-03-14T00:12:43;10.3;;;2.4;;
68375;SDS011;55318;52.068;5.188;2023-03-14T00:14:20;10.3;;;2.4;;
68375;SDS011;55318;52.068;5.188;2023-03-14T00:16:01;7.0;;;2.6;;
68375;SDS011;55318;52.068;5.188;2023-03-14T00:17:38;10.3;;;3.6;;
68375;SDS011;55318;52.068;5.188;2023-03-14T00:20:51;10.8;;;2.21;;
68375;SDS011;55318;52.068;5.188;2023-03-14T00:22:28;6.9;;;2.1;;
68375;SDS011;55318;52.068;5.188;2023-03-14T00:24:06;4.7;;;3.0;;
68375;SDS011;55318;52.068;5.188;2023-03-14T00:27:19;6.2;;;2.0;;
68375;SDS011;55318;52.068;5.188;2023-03-14T00:28:55;13.8;;;2.7;;
68375;SDS011;55318;52.068;5.188;2023-03-14T00:30:31;5.5;;;2.21;;
68375;SDS011;55318;52.068;5.188;2023-03-14T00:33:44;6.6;;;1.9;;
68375;SDS011;55318;52.068;5.188;2023-03-14T00:35:20;5.11;;;2.0;;
68375;SDS011;55318;52.068;5.188;2023-03-14T00:36:57;10.5;;;2.7;;
68375;SDS011;55318;52.068;5.188;2023-03-14T00:38:33;5.8;;;1.5;;
68375;SDS011;55318;52.068;5.188;2023-03-14T00:41:46;2.7;;;1.6;;
68375;SDS011;55318;52.068;5.188;2023-03-14T00:43:22;6.7;;;2.0;;
68375;SDS011;55318;52.068;5.188;2023-03-14T00:44:59;3.0;;;1.4;;
68375;SDS011;55318;52.068;5.188;2023-03-14T00:48:11;6.4;;;1.5;;
68375;SDS011;55318;52.068;5.188;2023-03-14T00:49:47;5.4;;;1.6;;
68375;SDS011;55318;52.068;5.188;2023-03-14T00:51:23;3.1;;;1.0;;
68375;SDS011;55318;52.068;5.188;2023-03-14T00:54:36;5.3;;;1.2;;
68375;SDS011;55318;52.068;5.188;2023-03-14T00:56:12;5.3;;;1.2;;
68375;SDS011;55318;52.068;5.188;2023-03-14T00:57:49;5.6;;;1.5;;
68375;SDS011;55318;52.068;5.188;2023-03-14T00:59:25;6.5;;;2.21;;
68375;SDS011;55318;52.068;5.188;2023-03-14T01:02:41;9.71;;;1.9;;
68375;SDS011;55318;52.068;5.188;2023-03-14T01:04:19;5.11;;;1.5;;
68375;SDS011;55318;52.068;5.188;2023-03-14T01:06:05;6.2;;;1.4;;
68375;SDS011;55318;52.068;5.188;2023-03-14T01:09:18;7.0;;;1.8;;
68375;SDS011;55318;52.068;5.188;2023-03-14T01:10:54;5.9;;;1.7;;
68375;SDS011;55318;52.068;5.188;2023-03-14T01:12:30;3.9;;;1.2;;
68375;SDS011;55318;52.068;5.188;2023-03-14T01:14:06;7.2;;;1.6;;
68375;SDS011;55318;52.068;5.188;2023-03-14T01:17:19;4.0;;;1.3;;
68375;SDS011;55318;52.068;5.188;2023-03-14T01:18:55;7.2;;;1.4;;
68375;SDS011;55318;52.068;5.188;2023-03-14T01:20:31;3.9;;;1.4;;
68375;SDS011;55318;52.068;5.188;2023-03-14T01:23:44;5.0;;;1.6;;
68375;SDS011;55318;52.068;5.188;2023-03-14T01:25:21;3.8;;;1.4;;
68375;SDS011;55318;52.068;5.188;2023-03-14T01:26:57;2.7;;;0.9;;
68375;SDS011;55318;52.068;5.188;2023-03-14T01:30:10;4.5;;;1.2;;
68375;SDS011;55318;52.068;5.188;2023-03-14T01:31:49;3.7;;;1.0;;
68375;SDS011;55318;52.068;5.188;2023-03-14T01:33:25;8.81;;;1.8;;
68375;SDS011;55318;52.068;5.188;2023-03-14T01:35:01;4.8;;;1.7;;
68375;SDS011;55318;52.068;5.188;2023-03-14T01:38:14;5.11;;;1.6;;
68375;SDS011;55318;52.068;5.188;2023-03-14T01:39:49;5.0;;;1.9;;
68375;SDS011;55318;52.068;5.188;2023-03-14T01:41:26;5.5;;;1.2;;
68375;SDS011;55318;52.068;5.188;2023-03-14T01:44:51;4.41;;;1.3;;
68375;SDS011;55318;52.068;5.188;2023-03-14T01:46:32;3.0;;;1.3;;
68375;SDS011;55318;52.068;5.188;2023-03-14T01:48:12;7.7;;;1.2;;
68375;SDS011;55318;52.068;5.188;2023-03-14T01:49:49;4.3;;;1.6;;
68375;SDS011;55318;52.068;5.188;2023-03-14T01:53:12;7.4;;;1.6;;
68375;SDS011;55318;52.068;5.188;2023-03-14T01:54:49;5.0;;;1.6;;
68375;SDS011;55318;52.068;5.188;2023-03-14T01:56:29;4.61;;;1.11;;
68375;SDS011;55318;52.068;5.188;2023-03-14T01:58:07;5.8;;;1.3;;
68375;SDS011;55318;52.068;5.188;2023-03-14T02:01:26;5.6;;;1.7;;
68375;SDS011;55318;52.068;5.188;2023-03-14T02:03:07;2.6;;;1.3;;
68375;SDS011;55318;52.068;5.188;2023-03-14T02:04:49;6.9;;;1.2;;
68375;SDS011;55318;52.068;5.188;2023-03-14T02:06:29;6.8;;;1.6;;
68375;SDS011;55318;52.068;5.188;2023-03-14T02:09:53;3.9;;;1.3;;
68375;SDS011;55318;52.068;5.188;2023-03-14T02:11:32;3.5;;;1.5;;
68375;SDS011;55318;52.068;5.188;2023-03-14T02:13:09;6.6;;;1.2;;
68375;SDS011;55318;52.068;5.188;2023-03-14T02:14:47;3.8;;;1.0;;
68375;SDS011;55318;52.068;5.188;2023-03-14T02:18:01;3.7;;;0.9;;
68375;SDS011;55318;52.068;5.188;2023-03-14T02:19:46;4.7;;;0.9;;
68375;SDS011;55318;52.068;5.188;2023-03-14T02:21:36;6.5;;;1.3;;
68375;SDS011;55318;52.068;5.188;2023-03-14T02:23:25;5.7;;;1.11;;
68375;SDS011;55318;52.068;5.188;2023-03-14T02:25:11;4.8;;;0.9;;
68375;SDS011;55318;52.068;5.188;2023-03-14T02:29:01;3.8;;;1.0;;
68375;SDS011;55318;52.068;5.188;2023-03-14T02:30:37;3.2;;;1.9;;
68375;SDS011;55318;52.068;5.188;2023-03-14T02:32:14;2.9;;;1.0;;
68375;SDS011;55318;52.068;5.188;2023-03-14T02:33:53;4.8;;;0.9;;
68375;SDS011;55318;52.068;5.188;2023-03-14T02:37:16;2.0;;;1.11;;
68375;SDS011;55318;52.068;5.188;2023-03-14T02:38:58;5.8;;;1.4;;
68375;SDS011;55318;52.068;5.188;2023-03-14T02:40:42;8.0;;;1.6;;
68375;SDS011;55318;52.068;5.188;2023-03-14T02:42:19;4.8;;;1.6;;
68375;SDS011;55318;52.068;5.188;2023-03-14T02:45:36;6.0;;;1.7;;
68375;SDS011;55318;52.068;5.188;2023-03-14T02:47:18;5.4;;;1.5;;
68375;SDS011;55318;52.068;5.188;2023-03-14T02:48:59;5.2;;;1.5;;
68375;SDS011;55318;52.068;5.188;2023-03-14T02:50:40;2.31;;;0.9;;
68375;SDS011;55318;52.068;5.188;2023-03-14T02:53:53;5.3;;;1.9;;
68375;SDS011;55318;52.068;5.188;2023-03-14T02:55:29;3.9;;;1.6;;
68375;SDS011;55318;52.068;5.188;2023-03-14T02:57:05;5.4;;;1.2;;
68375;SDS011;55318;52.068;5.188;2023-03-14T02:58:41;4.41;;;1.4;;
68375;SDS011;55318;52.068;5.188;2023-03-14T03:01:54;3.6;;;1.6;;
68375;SDS011;55318;52.068;5.188;2023-03-14T03:03:31;5.11;;;1.11;;
68375;SDS011;55318;52.068;5.188;2023-03-14T03:05:07;7.8;;;1.5;;
68375;SDS011;55318;52.068;5.188;2023-03-14T03:08:19;3.8;;;1.11;;
68375;SDS011;55318;52.068;5.188;2023-03-14T03:09:57;6.7;;;2.0;;
68375;SDS011;55318;52.068;5.188;2023-03-14T03:11:33;6.7;;;2.0;;
68375;SDS011;55318;52.068;5.188;2023-03-14T03:14:45;3.3;;;2.0;;
68375;SDS011;55318;52.068;5.188;2023-03-14T03:16:22;3.7;;;1.3;;
68375;SDS011;55318;52.068;5.188;2023-03-14T03:17:58;4.1;;;1.2;;
68375;SDS011;55318;52.068;5.188;2023-03-14T03:19:34;2.21;;;1.0;;
68375;SDS011;55318;52.068;5.188;2023-03-14T03:22:47;2.21;;;1.0;;
68375;SDS011;55318;52.068;5.188;2023-03-14T03:24:23;7.0;;;1.9;;
68375;SDS011;55318;52.068;5.188;2023-03-14T03:26:00;4.8;;;1.7;;
68375;SDS011;55318;52.068;5.188;2023-03-14T03:29:13;6.2;;;1.5;;
68375;SDS011;55318;52.068;5.188;2023-03-14T03:30:49;2.9;;;1.6;;
68375;SDS011;55318;52.068;5.188;2023-03-14T03:32:26;3.8;;;1.9;;
68375;SDS011;55318;52.068;5.188;2023-03-14T03:35:43;3.8;;;1.7;;
68375;SDS011;55318;52.068;5.188;2023-03-14T03:37:20;4.2;;;2.0;;
68375;SDS011;55318;52.068;5.188;2023-03-14T03:38:56;6.6;;;1.3;;
68375;SDS011;55318;52.068;5.188;2023-03-14T03:40:32;3.3;;;1.2;;
68375;SDS011;55318;52.068;5.188;2023-03-14T03:43:44;7.2;;;1.6;;
68375;SDS011;55318;52.068;5.188;2023-03-14T03:45:21;2.8;;;1.7;;
68375;SDS011;55318;52.068;5.188;2023-03-14T03:46:57;4.7;;;1.5;;
68375;SDS011;55318;52.068;5.188;2023-03-14T03:50:10;5.7;;;1.2;;
68375;SDS011;55318;52.068;5.188;2023-03-14T03:51:46;3.0;;;1.4;;
68375;SDS011;55318;52.068;5.188;2023-03-14T03:53:22;4.91;;;1.7;;
68375;SDS011;55318;52.068;5.188;2023-03-14T03:56:35;2.21;;;1.4;;
68375;SDS011;55318;52.068;5.188;2023-03-14T03:58:11;6.6;;;1.6;;
68375;SDS011;55318;52.068;5.188;2023-03-14T03:59:47;6.9;;;1.3;;
68375;SDS011;55318;52.068;5.188;2023-03-14T04:01:23;6.1;;;2.0;;
68375;SDS011;55318;52.068;5.188;2023-03-14T04:04:35;5.0;;;1.4;;
68375;SDS011;55318;52.068;5.188;2023-03-14T04:06:12;6.8;;;1.3;;
68375;SDS011;55318;52.068;5.188;2023-03-14T04:07:48;7.1;;;2.0;;
68375;SDS011;55318;52.068;5.188;2023-03-14T04:11:01;2.5;;;1.2;;
68375;SDS011;55318;52.068;5.188;2023-03-14T04:12:39;3.4;;;1.2;;
68375;SDS011;55318;52.068;5.188;2023-03-14T04:14:15;3.4;;;1.4;;
68375;SDS011;55318;52.068;5.188;2023-03-14T04:17:28;7.5;;;2.5;;
68375;SDS011;55318;52.068;5.188;2023-03-14T04:19:04;3.8;;;1.11;;
68375;SDS011;55318;52.068;5.188;2023-03-14T04:20:40;4.0;;;1.2;;
68375;SDS011;55318;52.068;5.188;2023-03-14T04:23:53;3.3;;;1.2;;
68375;SDS011;55318;52.068;5.188;2023-03-14T04:25:30;4.3;;;1.2;;
68375;SDS011;55318;52.068;5.188;2023-03-14T04:27:06;3.2;;;1.11;;
68375;SDS011;55318;52.068;5.188;2023-03-14T04:28:42;4.5;;;1.3;;
68375;SDS011;55318;52.068;5.188;2023-03-14T04:31:55;1.9;;;1.11;;
68375;SDS011;55318;52.068;5.188;2023-03-14T04:33:31;5.8;;;1.6;;
68375;SDS011;55318;52.068;5.188;2023-03-14T04:35:08;5.6;;;1.8;;
68375;SDS011;55318;52.068;5.188;2023-03-14T04:38:20;4.0;;;1.7;;
68375;SDS011;55318;52.068;5.188;2023-03-14T04:39:56;6.1;;;1.4;;
68375;SDS011;55318;52.068;5.188;2023-03-14T04:41:32;3.7;;;1.3;;
68375;SDS011;55318;52.068;5.188;2023-03-14T04:44:46;3.9;;;1.6;;
68375;SDS011;55318;52.068;5.188;2023-03-14T04:46:22;4.0;;;1.5;;
68375;SDS011;55318;52.068;5.188;2023-03-14T04:47:58;3.8;;;1.4;;
68375;SDS011;55318;52.068;5.188;2023-03-14T04:49:35;4.5;;;1.8;;
68375;SDS011;55318;52.068;5.188;2023-03-14T04:52:47;3.9;;;1.3;;
68375;SDS011;55318;52.068;5.188;2023-03-14T04:54:23;3.4;;;1.4;;
68375;SDS011;55318;52.068;5.188;2023-03-14T04:55:59;1.9;;;0.9;;
68375;SDS011;55318;52.068;5.188;2023-03-14T04:59:12;3.4;;;1.5;;
68375;SDS011;55318;52.068;5.188;2023-03-14T05:00:49;2.0;;;1.0;;
68375;SDS011;55318;52.068;5.188;2023-03-14T05:02:26;4.61;;;1.0;;
68375;SDS011;55318;52.068;5.188;2023-03-14T05:05:38;2.0;;;0.9;;
68375;SDS011;55318;52.068;5.188;2023-03-14T05:07:14;3.4;;;1.4;;
68375;SDS011;55318;52.068;5.188;2023-03-14T05:08:50;3.8;;;0.9;;
68375;SDS011;55318;52.068;5.188;2023-03-14T05:10:26;3.1;;;1.6;;
68375;SDS011;55318;52.068;5.188;2023-03-14T05:13:39;5.7;;;0.9;;
68375;SDS011;55318;52.068;5.188;2023-03-14T05:15:15;4.5;;;1.5;;
68375;SDS011;55318;52.068;5.188;2023-03-14T05:16:51;2.0;;;1.11;;
68375;SDS011;55318;52.068;5.188;2023-03-14T05:20:03;3.5;;;1.4;;
68375;SDS011;55318;52.068;5.188;2023-03-14T05:21:40;5.7;;;2.0;;
68375;SDS011;55318;52.068;5.188;2023-03-14T05:23:16;3.2;;;0.9;;
68375;SDS011;55318;52.068;5.188;2023-03-14T05:26:29;2.1;;;1.2;;
68375;SDS011;55318;52.068;5.188;2023-03-14T05:28:06;2.8;;;0.9;;
68375;SDS011;55318;52.068;5.188;2023-03-14T05:29:42;2.6;;;1.6;;
68375;SDS011;55318;52.068;5.188;2023-03-14T05:32:54;3.8;;;1.4;;
68375;SDS011;55318;52.068;5.188;2023-03-14T05:34:30;4.91;;;1.9;;
68375;SDS011;55318;52.068;5.188;2023-03-14T05:36:07;6.0;;;1.6;;
68375;SDS011;55318;52.068;5.188;2023-03-14T05:37:43;3.3;;;1.5;;
68375;SDS011;55318;52.068;5.188;2023-03-14T05:40:56;1.5;;;1.11;;
68375;SDS011;55318;52.068;5.188;2023-03-14T05:42:33;5.0;;;2.31;;
68375;SDS011;55318;52.068;5.188;2023-03-14T05:44:09;6.3;;;1.4;;
68375;SDS011;55318;52.068;5.188;2023-03-14T05:47:21;2.8;;;1.6;;
68375;SDS011;55318;52.068;5.188;2023-03-14T05:48:57;3.6;;;2.1;;
68375;SDS011;55318;52.068;5.188;2023-03-14T05:50:35;3.5;;;1.3;;
68375;SDS011;55318;52.068;5.188;2023-03-14T05:53:48;3.4;;;1.8;;
68375;SDS011;55318;52.068;5.188;2023-03-14T05:55:24;6.1;;;1.7;;
68375;SDS011;55318;52.068;5.188;2023-03-14T05:57:01;5.2;;;1.8;;
68375;SDS011;55318;52.068;5.188;2023-03-14T05:58:37;3.2;;;1.8;;
68375;SDS011;55318;52.068;5.188;2023-03-14T06:01:50;4.0;;;1.7;;
68375;SDS011;55318;52.068;5.188;2023-03-14T06:03:26;10.21;;;3.1;;
68375;SDS011;55318;52.068;5.188;2023-03-14T06:05:03;4.3;;;2.0;;
68375;SDS011;55318;52.068;5.188;2023-03-14T06:08:17;4.3;;;2.0;;
68375;SDS011;55318;52.068;5.188;2023-03-14T06:09:53;4.1;;;2.6;;
68375;SDS011;55318;52.068;5.188;2023-03-14T06:11:29;4.1;;;2.31;;
68375;SDS011;55318;52.068;5.188;2023-03-14T06:14:41;5.3;;;2.21;;
68375;SDS011;55318;52.068;5.188;2023-03-14T06:16:17;4.8;;;2.4;;
68375;SDS011;55318;52.068;5.188;2023-03-14T06:17:53;6.2;;;2.4;;
68375;SDS011;55318;52.068;5.188;2023-03-14T06:19:30;5.6;;;2.5;;
68375;SDS011;55318;52.068;5.188;2023-03-14T06:22:44;7.7;;;3.1;;
68375;SDS011;55318;52.068;5.188;2023-03-14T06:24:20;7.3;;;3.0;;
68375;SDS011;55318;52.068;5.188;2023-03-14T06:25:56;6.8;;;2.6;;
68375;SDS011;55318;52.068;5.188;2023-03-14T06:29:09;4.2;;;2.0;;
68375;SDS011;55318;52.068;5.188;2023-03-14T06:30:45;3.2;;;1.2;;
68375;SDS011;55318;52.068;5.188;2023-03-14T06:32:21;1.9;;;0.9;;
68375;SDS011;55318;52.068;5.188;2023-03-14T06:35:35;2.4;;;1.3;;
68375;SDS011;55318;52.068;5.188;2023-03-14T06:37:11;2.7;;;0.9;;
68375;SDS011;55318;52.068;5.188;2023-03-14T06:38:47;2.7;;;0.7;;
68375;SDS011;55318;52.068;5.188;2023-03-14T06:40:23;3.8;;;0.6;;
68375;SDS011;55318;52.068;5.188;2023-03-14T06:43:35;0.7;;;0.2;;
68375;SDS011;55318;52.068;5.188;2023-03-14T06:45:12;1.2;;;0.5;;
68375;SDS011;55318;52.068;5.188;2023-03-14T06:46:48;0.9;;;0.6;;
68375;SDS011;55318;52.068;5.188;2023-03-14T06:50:01;0.3;;;0.2;;
68375;SDS011;55318;52.068;5.188;2023-03-14T06:51:40;1.6;;;0.6;;
68375;SDS011;55318;52.068;5.188;2023-03-14T06:53:16;1.3;;;0.4;;
68375;SDS011;55318;52.068;5.188;2023-03-14T06:56:28;1.4;;;0.2;;
68375;SDS011;55318;52.068;5.188;2023-03-14T06:58:04;0.8;;;0.3;;
68375;SDS011;55318;52.068;5.188;2023-03-14T06:59:41;1.2;;;0.5;;
68375;SDS011;55318;52.068;5.188;2023-03-14T07:02:58;2.0;;;0.3;;
68375;SDS011;55318;52.068;5.188;2023-03-14T07:04:34;1.3;;;0.3;;
68375;SDS011;55318;52.068;5.188;2023-03-14T07:06:10;1.2;;;0.3;;
68375;SDS011;55318;52.068;5.188;2023-03-14T07:07:46;0.6;;;0.4;;
68375;SDS011;55318;52.068;5.188;2023-03-14T07:10:59;1.11;;;0.5;;
68375;SDS011;55318;52.068;5.188;2023-03-14T07:12:35;1.4;;;0.4;;
68375;SDS011;55318;52.068;5.188;2023-03-14T07:14:11;4.61;;;1.8;;
68375;SDS011;55318;52.068;5.188;2023-03-14T07:17:23;0.7;;;0.6;;
68375;SDS011;55318;52.068;5.188;2023-03-14T07:18:59;2.6;;;0.9;;
68375;SDS011;55318;52.068;5.188;2023-03-14T07:20:36;1.0;;;0.6;;
68375;SDS011;55318;52.068;5.188;2023-03-14T07:23:49;0.8;;;0.5;;
68375;SDS011;55318;52.068;5.188;2023-03-14T07:25:25;1.6;;;0.5;;
68375;SDS011;55318;52.068;5.188;2023-03-14T07:27:02;1.3;;;0.6;;
68375;SDS011;55318;52.068;5.188;2023-03-14T07:28:38;1.3;;;0.6;;
68375;SDS011;55318;52.068;5.188;2023-03-14T07:31:50;1.11;;;0.4;;
68375;SDS011;55318;52.068;5.188;2023-03-14T07:33:26;0.6;;;0.4;;
68375;SDS011;55318;52.068;5.188;2023-03-14T07:35:03;1.0;;;0.5;;
68375;SDS011;55318;52.068;5.188;2023-03-14T07:38:16;1.3;;;0.3;;
68375;SDS011;55318;52.068;5.188;2023-03-14T07:39:52;1.7;;;1.0;;
68375;SDS011;55318;52.068;5.188;2023-03-14T07:41:28;0.5;;;0.4;;
68375;SDS011;55318;52.068;5.188;2023-03-14T07:44:40;0.9;;;0.8;;
68375;SDS011;55318;52.068;5.188;2023-03-14T07:46:17;1.0;;;0.5;;
68375;SDS011;55318;52.068;5.188;2023-03-14T07:47:52;1.3;;;0.6;;
68375;SDS011;55318;52.068;5.188;2023-03-14T07:49:28;0.9;;;0.4;;
68375;SDS011;55318;52.068;5.188;2023-03-14T07:52:41;3.3;;;0.6;;
68375;SDS011;55318;52.068;5.188;2023-03-14T07:54:17;2.4;;;0.9;;
68375;SDS011;55318;52.068;5.188;2023-03-14T07:55:53;0.9;;;0.5;;
68375;SDS011;55318;52.068;5.188;2023-03-14T07:59:05;1.5;;;0.5;;
68375;SDS011;55318;52.068;5.188;2023-03-14T08:00:41;1.8;;;1.0;;
68375;SDS011;55318;52.068;5.188;2023-03-14T08:02:19;1.2;;;0.4;;
68375;SDS011;55318;52.068;5.188;2023-03-14T08:05:33;2.1;;;0.5;;
68375;SDS011;55318;52.068;5.188;2023-03-14T08:07:10;0.5;;;0.4;;
68375;SDS011;55318;52.068;5.188;2023-03-14T08:08:46;1.5;;;0.4;;
68375;SDS011;55318;52.068;5.188;2023-03-14T08:10:22;0.8;;;0.5;;
68375;SDS011;55318;52.068;5.188;2023-03-14T08:13:35;1.4;;;0.7;;
68375;SDS011;55318;52.068;5.188;2023-03-14T08:15:13;2.1;;;0.6;;
68375;SDS011;55318;52.068;5.188;2023-03-14T08:16:49;2.1;;;1.0;;
68375;SDS011;55318;52.068;5.188;2023-03-14T08:20:02;1.4;;;0.5;;
68375;SDS011;55318;52.068;5.188;2023-03-14T08:21:39;0.7;;;0.6;;
68375;SDS011;55318;52.068;5.188;2023-03-14T08:23:15;5.4;;;1.0;;
68375;SDS011;55318;52.068;5.188;2023-03-14T08:26:27;2.0;;;0.7;;
68375;SDS011;55318;52.068;5.188;2023-03-14T08:28:04;4.5;;;0.9;;
68375;SDS011;55318;52.068;5.188;2023-03-14T08:29:40;1.9;;;0.4;;
68375;SDS011;55318;52.068;5.188;2023-03-14T08:31:17;1.7;;;0.3;;
68375;SDS011;55318;52.068;5.188;2023-03-14T08:34:32;2.7;;;0.5;;
68375;SDS011;55318;52.068;5.188;2023-03-14T08:36:10;3.7;;;1.11;;
68375;SDS011;55318;52.068;5.188;2023-03-14T08:37:46;1.0;;;0.3;;
68375;SDS011;55318;52.068;5.188;2023-03-14T08:40:59;3.7;;;0.4;;
68375;SDS011;55318;52.068;5.188;2023-03-14T08:42:37;2.6;;;0.6;;
68375;SDS011;55318;52.068;5.188;2023-03-14T08:44:14;1.8;;;0.4;;
68375;SDS011;55318;52.068;5.188;2023-03-14T08:47:26;1.4;;;1.3;;
68375;SDS011;55318;52.068;5.188;2023-03-14T08:49:02;1.5;;;0.4;;
68375;SDS011;55318;52.068;5.188;2023-03-14T08:50:40;1.6;;;0.3;;
68375;SDS011;55318;52.068;5.188;2023-03-14T08:52:16;0.9;;;0.4;;
68375;SDS011;55318;52.068;5.188;2023-03-14T08:55:28;0.4;;;0.4;;
68375;SDS011;55318;52.068;5.188;2023-03-14T08:57:04;0.8;;;0.2;;
68375;SDS011;55318;52.068;5.188;2023-03-14T08:58:41;2.21;;;1.2;;
68375;SDS011;55318;52.068;5.188;2023-03-14T09:01:55;1.5;;;0.4;;
68375;SDS011;55318;52.068;5.188;2023-03-14T09:03:31;1.7;;;0.6;;
68375;SDS011;55318;52.068;5.188;2023-03-14T09:05:07;1.11;;;0.7;;
68375;SDS011;55318;52.068;5.188;2023-03-14T09:08:20;2.21;;;1.0;;
68375;SDS011;55318;52.068;5.188;2023-03-14T09:09:56;2.1;;;0.7;;
68375;SDS011;55318;52.068;5.188;2023-03-14T09:11:33;5.5;;;1.0;;
68375;SDS011;55318;52.068;5.188;2023-03-14T09:13:09;5.3;;;1.2;;
68375;SDS011;55318;52.068;5.188;2023-03-14T09:16:21;3.6;;;0.7;;
68375;SDS011;55318;52.068;5.188;2023-03-14T09:17:57;3.0;;;0.9;;
68375;SDS011;55318;52.068;5.188;2023-03-14T09:19:33;8.4;;;0.8;;
68375;SDS011;55318;52.068;5.188;2023-03-14T09:22:45;3.3;;;0.8;;
68375;SDS011;55318;52.068;5.188;2023-03-14T09:24:21;8.31;;;1.4;;
68375;SDS011;55318;52.068;5.188;2023-03-14T09:25:57;3.2;;;1.0;;
68375;SDS011;55318;52.068;5.188;2023-03-14T09:29:11;6.0;;;1.9;;
68375;SDS011;55318;52.068;5.188;2023-03-14T09:30:47;6.0;;;1.3;;
68375;SDS011;55318;52.068;5.188;2023-03-14T09:32:23;5.2;;;1.2;;
68375;SDS011;55318;52.068;5.188;2023-03-14T09:35:35;5.3;;;1.0;;
68375;SDS011;55318;52.068;5.188;2023-03-14T09:37:12;4.7;;;1.4;;
68375;SDS011;55318;52.068;5.188;2023-03-14T09:38:48;7.0;;;2.21;;
68375;SDS011;55318;52.068;5.188;2023-03-14T09:40:24;7.7;;;1.2;;
68375;SDS011;55318;52.068;5.188;2023-03-14T09:43:51;3.6;;;1.3;;
68375;SDS011;55318;52.068;5.188;2023-03-14T09:45:39;10.8;;;2.21;;
68375;SDS011;55318;52.068;5.188;2023-03-14T09:47:17;6.5;;;1.2;;
68375;SDS011;55318;52.068;5.188;2023-03-14T09:48:54;7.7;;;1.6;;
68375;SDS011;55318;52.068;5.188;2023-03-14T09:52:14;10.7;;;1.9;;
68375;SDS011;55318;52.068;5.188;2023-03-14T09:53:55;5.4;;;2.0;;
68375;SDS011;55318;52.068;5.188;2023-03-14T09:55:31;6.5;;;1.8;;
68375;SDS011;55318;52.068;5.188;2023-03-14T09:57:10;9.0;;;1.8;;
68375;SDS011;55318;52.068;5.188;2023-03-14T10:00:30;7.4;;;1.5;;
68375;SDS011;55318;52.068;5.188;2023-03-14T10:02:11;11.1;;;1.6;;
68375;SDS011;55318;52.068;5.188;2023-03-14T10:03:54;6.8;;;1.2;;
68375;SDS011;55318;52.068;5.188;2023-03-14T10:05:31;6.8;;;1.9;;
68375;SDS011;55318;52.068;5.188;2023-03-14T10:08:50;7.3;;;2.7;;
68375;SDS011;55318;52.068;5.188;2023-03-14T10:10:26;5.8;;;1.4;;
68375;SDS011;55318;52.068;5.188;2023-03-14T10:12:03;7.4;;;1.3;;
68375;SDS011;55318;52.068;5.188;2023-03-14T10:15:26;4.7;;;2.0;;
68375;SDS011;55318;52.068;5.188;2023-03-14T10:17:07;3.0;;;1.5;;
68375;SDS011;55318;52.068;5.188;2023-03-14T10:18:45;8.31;;;2.31;;
68375;SDS011;55318;52.068;5.188;2023-03-14T10:20:27;6.3;;;1.5;;
68375;SDS011;55318;52.068;5.188;2023-03-14T10:23:50;4.7;;;1.5;;
68375;SDS011;55318;52.068;5.188;2023-03-14T10:25:27;11.3;;;2.0;;
68375;SDS011;55318;52.068;5.188;2023-03-14T10:27:08;7.0;;;1.6;;
68375;SDS011;55318;52.068;5.188;2023-03-14T10:29:01;7.0;;;1.6;;
68375;SDS011;55318;52.068;5.188;2023-03-14T10:30:40;7.0;;;2.21;;
68375;SDS011;55318;52.068;5.188;2023-03-14T10:34:04;6.0;;;1.7;;
68375;SDS011;55318;52.068;5.188;2023-03-14T10:35:41;7.0;;;2.4;;
68375;SDS011;55318;52.068;5.188;2023-03-14T10:37:17;9.31;;;1.9;;
68375;SDS011;55318;52.068;5.188;2023-03-14T10:38:57;4.91;;;1.5;;
68375;SDS011;55318;52.068;5.188;2023-03-14T10:42:30;8.71;;;2.0;;
68375;SDS011;55318;52.068;5.188;2023-03-14T10:44:09;6.4;;;1.8;;
68375;SDS011;55318;52.068;5.188;2023-03-14T10:45:51;4.2;;;1.2;;
68375;SDS011;55318;52.068;5.188;2023-03-14T10:47:29;11.2;;;2.4;;
68375;SDS011;55318;52.068;5.188;2023-03-14T10:51:03;8.1;;;2.0;;
68375;SDS011;55318;52.068;5.188;2023-03-14T10:52:46;4.7;;;2.0;;
68375;SDS011;55318;52.068;5.188;2023-03-14T10:54:24;5.2;;;1.9;;
68375;SDS011;55318;52.068;5.188;2023-03-14T10:56:05;6.7;;;1.9;;
68375;SDS011;55318;52.068;5.188;2023-03-14T10:57:43;10.4;;;2.4;;
68375;SDS011;55318;52.068;5.188;2023-03-14T11:00:59;5.5;;;1.8;;
68375;SDS011;55318;52.068;5.188;2023-03-14T11:02:48;4.0;;;1.9;;
68375;SDS011;55318;52.068;5.188;2023-03-14T11:04:44;5.7;;;1.7;;
68375;SDS011;55318;52.068;5.188;2023-03-14T11:06:36;9.9;;;2.6;;
68375;SDS011;55318;52.068;5.188;2023-03-14T11:08:20;12.4;;;3.2;;
68375;SDS011;55318;52.068;5.188;2023-03-14T11:11:53;8.81;;;2.8;;
68375;SDS011;55318;52.068;5.188;2023-03-14T11:13:41;9.5;;;2.8;;
68375;SDS011;55318;52.068;5.188;2023-03-14T11:15:27;12.9;;;3.4;;
68375;SDS011;55318;52.068;5.188;2023-03-14T11:17:11;8.6;;;1.8;;
68375;SDS011;55318;52.068;5.188;2023-03-14T11:19:00;12.4;;;2.5;;
68375;SDS011;55318;52.068;5.188;2023-03-14T11:21:05;7.5;;;2.4;;
68375;SDS011;55318;52.068;5.188;2023-03-14T11:24:39;5.7;;;1.7;;
68375;SDS011;55318;52.068;5.188;2023-03-14T11:26:30;10.7;;;2.1;;
68375;SDS011;55318;52.068;5.188;2023-03-14T11:28:15;6.6;;;2.4;;
68375;SDS011;55318;52.068;5.188;2023-03-14T11:30:00;6.2;;;3.6;;
68375;SDS011;55318;52.068;5.188;2023-03-14T11:31:49;6.9;;;1.6;;
68375;SDS011;55318;52.068;5.188;2023-03-14T11:33:33;5.2;;;1.8;;
68375;SDS011;55318;52.068;5.188;2023-03-14T11:35:28;8.5;;;2.5;;
68375;SDS011;55318;52.068;5.188;2023-03-14T11:38:55;8.31;;;1.8;;
68375;SDS011;55318;52.068;5.188;2023-03-14T11:40:33;5.11;;;1.2;;
68375;SDS011;55318;52.068;5.188;2023-03-14T11:42:12;7.6;;;1.8;;
68375;SDS011;55318;52.068;5.188;2023-03-14T11:43:52;4.91;;;1.6;;
68375;SDS011;55318;52.068;5.188;2023-03-14T11:47:14;4.91;;;1.6;;
68375;SDS011;55318;52.068;5.188;2023-03-14T11:48:58;5.7;;;1.6;;
68375;SDS011;55318;52.068;5.188;2023-03-14T11:50:39;7.0;;;1.6;;
68375;SDS011;55318;52.068;5.188;2023-03-14T11:52:19;3.7;;;2.0;;
68375;SDS011;55318;52.068;5.188;2023-03-14T11:55:50;4.0;;;1.3;;
68375;SDS011;55318;52.068;5.188;2023-03-14T11:57:26;9.0;;;1.9;;
68375;SDS011;55318;52.068;5.188;2023-03-14T11:59:03;3.0;;;1.4;;
68375;SDS011;55318;52.068;5.188;2023-03-14T12:00:45;3.0;;;1.11;;
68375;SDS011;55318;52.068;5.188;2023-03-14T12:04:16;3.3;;;1.3;;
68375;SDS011;55318;52.068;5.188;2023-03-14T12:06:06;4.5;;;0.8;;
68375;SDS011;55318;52.068;5.188;2023-03-14T12:08:03;4.3;;;1.11;;
68375;SDS011;55318;52.068;5.188;2023-03-14T12:10:21;2.8;;;1.0;;
68375;SDS011;55318;52.068;5.188;2023-03-14T12:11:57;5.9;;;1.11;;
68375;SDS011;55318;52.068;5.188;2023-03-14T12:13:38;3.0;;;1.0;;
68375;SDS011;55318;52.068;5.188;2023-03-14T12:15:18;3.6;;;1.0;;
68375;SDS011;55318;52.068;5.188;2023-03-14T12:18:34;4.5;;;1.0;;
68375;SDS011;55318;52.068;5.188;2023-03-14T12:20:15;5.3;;;1.11;;
68375;SDS011;55318;52.068;5.188;2023-03-14T12:21:56;5.11;;;1.2;;
68375;SDS011;55318;52.068;5.188;2023-03-14T12:23:37;5.8;;;1.2;;
68375;SDS011;55318;52.068;5.188;2023-03-14T12:26:59;2.4;;;1.11;;
68375;SDS011;55318;52.068;5.188;2023-03-14T12:28:37;1.7;;;1.0;;
68375;SDS011;55318;52.068;5.188;2023-03-14T12:30:16;3.5;;;1.2;;
68375;SDS011;55318;52.068;5.188;2023-03-14T12:32:06;3.7;;;1.3;;
68375;SDS011;55318;52.068;5.188;2023-03-14T12:35:39;4.3;;;1.3;;
68375;SDS011;55318;52.068;5.188;2023-03-14T12:37:19;1.4;;;1.11;;
68375;SDS011;55318;52.068;5.188;2023-03-14T12:39:06;4.2;;;1.5;;
68375;SDS011;55318;52.068;5.188;2023-03-14T12:40:56;4.7;;;1.4;;
68375;SDS011;55318;52.068;5.188;2023-03-14T12:42:40;5.2;;;1.4;;
68375;SDS011;55318;52.068;5.188;2023-03-14T12:44:37;2.0;;;0.9;;
68375;SDS011;55318;52.068;5.188;2023-03-14T12:48:06;5.2;;;1.7;;
68375;SDS011;55318;52.068;5.188;2023-03-14T12:49:46;5.0;;;1.4;;
68375;SDS011;55318;52.068;5.188;2023-03-14T12:51:28;4.61;;;1.11;;
68375;SDS011;55318;52.068;5.188;2023-03-14T12:53:23;6.6;;;1.11;;
68375;SDS011;55318;52.068;5.188;2023-03-14T12:56:19;3.3;;;0.9;;
68375;SDS011;55318;52.068;5.188;2023-03-14T12:58:02;3.7;;;1.11;;